Latest Coastal Weather Observations for Gannett Cay

IDQ60701

Issued at 6:51 am EST Monday 2 March 2015 (issued every 10 minutes, with the page automatically refreshed every 10 minutes)

About coastal observations | Map of coastal stations | Coastal observations for QLD | Marine services | Other Formats
Station Details ID: 200831 Name: GANNET CAY Lat: -21.98 Lon: 152.47 Height: 2.3 m
Data from the previous 72 hours. | See also: Recent months for locations in Queensland
Date/Time
EST
Temp

°C
Wind Pressure Rain
since 9am
mm
Weather Cloud Vis
km
Sea
Height
m
Swell
Dir
 
Speed
knots
Gust
knots
hPa Trend Height
m
Period
s
Dir
02/06:30am 26.6 SSE 9 11 1008.8 - - - - - - - - -
02/06:29am 26.5 SSE 9 - 1009.0 - - - - - - - - -
02/06:00am 26.4 SE 7 8 1008.4 - - - - - - - - -
02/05:30am 26.2 SE 6 8 1007.9 - - - - - - - - -
02/05:29am 26.2 SE 7 - 1008.0 - - - - - - - - -
02/05:00am 26.2 SE 6 8 1007.8 - - - - - - - - -
02/04:30am 26.2 SE 6 7 1007.7 - - - - - - - - -
02/04:29am 26.2 SE 6 - 1007.9 - - - - - - - - -
02/04:00am 26.2 SE 6 7 1007.5 - - - - - - - - -
02/03:30am 26.3 E 7 9 1007.2 - - - - - - - - -
02/03:29am 26.3 E 7 - 1007.4 - - - - - - - - -
02/03:00am 26.5 E 8 10 1007.3 - - - - - - - - -
02/02:30am 26.5 E 10 11 1007.4 - - - - - - - - -
02/02:29am 26.5 E 10 - 1007.6 - - - - - - - - -
02/02:00am 26.6 E 11 15 1007.6 - - - - - - - - -
02/01:30am 26.6 ESE 9 10 1008.2 - - - - - - - - -
02/01:29am 26.5 ESE 9 - 1008.4 - - - - - - - - -
02/01:00am 26.6 E 9 11 1008.4 - - - - - - - - -
02/12:30am 26.7 E 11 13 1008.5 - - - - - - - - -
02/12:29am 26.8 E 11 - 1008.7 - - - - - - - - -
02/12:00am 26.7 ESE 11 12 1008.9 - - - - - - - - -
 
Date/Time
EST
Temp

°C
Wind Pressure Rain
since 9am
mm
Weather Cloud Vis
km
Sea
Height
m
Swell
Dir
 
Speed
knots
Gust
knots
hPa Trend Height
m
Period
s
Dir
01/11:30pm 26.8 E 10 12 1009.1 - - - - - - - - -
01/11:29pm 26.8 E 10 - 1009.3 - - - - - - - - -
01/11:00pm 26.9 E 11 13 1009.3 - - - - - - - - -
01/10:30pm 26.8 ESE 12 14 1009.3 - - - - - - - - -
01/10:29pm 26.8 ESE 12 - 1009.5 - - - - - - - - -
01/10:00pm 27.0 ESE 12 14 1009.3 - - - - - - - - -
01/09:30pm 27.1 ESE 12 14 1009.0 - - - - - - - - -
01/09:29pm 26.8 ESE 12 - 1009.2 - - - - - - - - -
01/09:00pm 26.9 ESE 12 14 1008.9 - - - - - - - - -
01/08:30pm 26.9 ESE 14 16 1008.6 - - - - - - - - -
01/08:29pm 26.9 ESE 14 - 1008.8 - - - - - - - - -
01/08:00pm 27.0 ESE 13 15 1008.4 - - - - - - - - -
01/07:30pm 27.0 SE 13 15 1008.3 - - - - - - - - -
01/07:29pm 26.9 SE 13 - 1008.5 - - - - - - - - -
01/07:00pm 27.2 SE 14 16 1008.0 - - - - - - - - -
01/06:30pm 27.1 SE 13 15 1007.6 - - - - - - - - -
01/06:29pm 27.1 SE 13 - 1007.7 - - - - - - - - -
01/06:00pm 27.3 SSE 12 14 1007.5 - - - - - - - - -
01/05:30pm 27.7 SE 12 13 1007.6 - - - - - - - - -
01/05:29pm 27.7 SE 12 - 1007.8 - - - - - - - - -
01/05:00pm 27.8 SSE 12 14 1007.4 - - - - - - - - -
01/04:30pm 27.7 SSE 12 14 1007.3 - - - - - - - - -
01/04:29pm 27.7 S 12 - 1007.4 - - - - - - - - -
01/04:00pm 27.7 S 12 14 1006.9 - - - - - - - - -
01/03:30pm 27.6 SSE 11 13 1007.0 - - - - - - - - -
01/03:29pm 27.8 SSE 11 - 1007.2 - - - - - - - - -
01/03:00pm 27.5 S 11 13 1007.1 - - - - - - - - -
01/02:30pm 27.7 SSE 11 13 1007.3 - - - - - - - - -
01/02:29pm 27.6 SSE 11 - 1007.5 - - - - - - - - -
01/02:00pm 27.7 S 11 13 1007.5 - - - - - - - - -
01/01:30pm 27.6 S 10 11 1007.7 - - - - - - - - -
01/01:29pm 27.5 S 10 - 1007.9 - - - - - - - - -
01/01:00pm 27.6 S 10 11 1007.9 - - - - - - - - -
01/12:30pm 27.7 SSE 9 11 1008.3 - - - - - - - - -
01/12:29pm 27.6 SSE 9 - 1008.5 - - - - - - - - -
01/12:00pm 27.5 S 9 10 1008.6 - - - - - - - - -
01/11:30am 27.2 SSE 8 9 1008.9 - - - - - - - - -
01/11:29am 27.5 SSE 8 - 1009.1 - - - - - - - - -
01/11:00am 27.7 SSE 7 9 1009.1 - - - - - - - - -
01/10:30am 27.7 SSE 8 9 1009.3 - - - - - - - - -
01/10:29am 27.6 SSE 8 - 1009.5 - - - - - - - - -
01/10:00am 27.6 SSE 8 9 1009.3 - - - - - - - - -
01/09:30am 27.5 SE 8 10 1009.3 - - - - - - - - -
01/09:29am 27.5 SE 8 - 1009.5 - - - - - - - - -
01/09:00am 27.4 SE 8 10 1009.3 - - - - - - - - -
01/08:30am 27.1 ESE 9 11 1009.0 - - - - - - - - -
01/08:29am 27.1 ESE 9 - 1009.2 - - - - - - - - -
01/08:00am 27.1 ESE 9 11 1008.6 - - - - - - - - -
01/07:30am 26.9 ESE 10 11 1008.3 - - - - - - - - -
01/07:29am 26.8 ESE 10 - 1008.5 - - - - - - - - -
01/07:00am 26.7 ESE 10 13 1008.1 - - - - - - - - -
01/06:30am 26.4 ESE 9 10 1007.8 - - - - - - - - -
01/06:29am 26.5 ESE 9 - 1008.0 - - - - - - - - -
01/06:00am 26.4 ESE 9 11 1007.6 - - - - - - - - -
01/05:30am 26.3 ESE 10 12 1007.5 - - - - - - - - -
01/05:29am 26.4 ESE 10 - 1007.7 - - - - - - - - -
01/05:00am 26.4 ESE 11 13 1007.2 - - - - - - - - -
01/04:30am 26.3 ESE 8 10 1007.3 - - - - - - - - -
01/04:29am 26.2 ESE 8 - 1007.5 - - - - - - - - -
01/04:00am 26.3 ESE 8 10 1007.5 - - - - - - - - -
01/03:30am 26.4 E 10 12 1007.4 - - - - - - - - -
01/03:29am 26.4 E 11 - 1007.7 - - - - - - - - -
01/03:00am 26.3 ESE 11 13 1007.3 - - - - - - - - -
01/02:30am 26.4 E 12 14 1007.2 - - - - - - - - -
01/02:29am 26.4 E 12 - 1007.4 - - - - - - - - -
01/02:00am 26.4 E 13 15 1007.4 - - - - - - - - -
01/01:30am 26.4 E 13 15 1007.6 - - - - - - - - -
01/01:29am 26.4 E 13 - 1007.9 - - - - - - - - -
01/01:00am 26.4 ESE 14 16 1008.2 - - - - - - - - -
01/12:30am 26.5 ESE 14 16 1008.5 - - - - - - - - -
01/12:29am 26.4 ESE 14 - 1008.7 - - - - - - - - -
01/12:00am 26.5 ESE 14 16 1008.7 - - - - - - - - -
 
Date/Time
EST
Temp

°C
Wind Pressure Rain
since 9am
mm
Weather Cloud Vis
km
Sea
Height
m
Swell
Dir
 
Speed
knots
Gust
knots
hPa Trend Height
m
Period
s
Dir
28/11:30pm 26.6 ESE 14 16 1008.9 - - - - - - - - -
28/11:29pm 26.5 ESE 14 - 1009.0 - - - - - - - - -
28/11:00pm 26.6 ESE 13 16 1008.9 - - - - - - - - -
28/10:30pm 26.8 ESE 13 16 1009.3 - - - - - - - - -
28/10:29pm 26.7 ESE 13 - 1009.4 - - - - - - - - -
28/10:00pm 26.8 ESE 14 17 1009.5 - - - - - - - - -
28/09:30pm 26.8 ESE 14 16 1009.3 - - - - - - - - -
28/09:29pm 26.8 ESE 14 - 1009.4 - - - - - - - - -
28/09:00pm 26.8 SE 13 16 1009.1 - - - - - - - - -
28/08:30pm 26.8 SE 13 15 1008.8 - - - - - - - - -
28/08:29pm 26.8 SE 13 - 1009.0 - - - - - - - - -
28/08:00pm 26.9 ESE 13 15 1008.7 - - - - - - - - -
28/07:30pm 26.9 ESE 14 15 1008.4 - - - - - - - - -
28/07:29pm 26.9 ESE 14 - 1008.6 - - - - - - - - -
28/07:00pm 26.9 SE 12 15 1008.0 - - - - - - - - -
28/06:30pm 26.9 SE 12 14 1007.7 - - - - - - - - -
28/06:29pm 26.9 SE 12 - 1007.9 - - - - - - - - -
28/06:00pm 27.2 SE 13 15 1007.4 - - - - - - - - -
28/05:30pm 27.5 SE 13 15 1007.1 - - - - - - - - -
28/05:29pm 27.4 SE 13 - 1007.3 - - - - - - - - -
28/05:00pm 27.5 SE 13 15 1007.1 - - - - - - - - -
28/04:30pm 27.5 SE 14 16 1007.2 - - - - - - - - -
28/04:29pm 27.7 SE 13 - 1007.4 - - - - - - - - -
28/04:00pm 27.9 SE 13 16 1007.1 - - - - - - - - -
28/03:30pm 27.8 SE 14 17 1006.9 - - - - - - - - -
28/03:29pm 27.7 SE 14 - 1007.1 - - - - - - - - -
28/03:00pm 27.7 SSE 14 17 1007.1 - - - - - - - - -
28/02:30pm 27.9 SSE 13 15 1007.1 - - - - - - - - -
28/02:29pm 27.9 SSE 13 - 1007.3 - - - - - - - - -
28/02:00pm 27.9 SSE 13 14 1007.4 - - - - - - - - -
28/01:30pm 27.8 SSE 12 14 1007.6 - - - - - - - - -
28/01:29pm 27.9 SSE 12 - 1007.8 - - - - - - - - -
28/01:00pm 27.7 SSE 13 15 1007.9 - - - - - - - - -
28/12:30pm 27.7 SSE 13 15 1008.2 - - - - - - - - -
28/12:29pm 27.8 SSE 12 - 1008.4 - - - - - - - - -
28/12:00pm 27.6 SSE 12 14 1008.5 - - - - - - - - -
28/11:30am 27.6 SSE 13 15 1008.8 - - - - - - - - -
28/11:29am 27.7 SSE 13 - 1009.0 - - - - - - - - -
28/11:00am 27.6 SSE 12 14 1008.9 - - - - - - - - -
28/10:30am 27.6 SSE 11 13 1009.1 - - - - - - - - -
28/10:29am 27.6 SSE 11 - 1009.3 - - - - - - - - -
28/10:00am 27.6 SSE 11 13 1009.0 - - - - - - - - -
28/09:30am 27.3 SE 10 12 1008.8 - - - - - - - - -
28/09:29am 27.3 SSE 10 - 1009.0 - - - - - - - - -
28/09:00am 27.2 SSE 10 12 1008.6 - - - - - - - - -
28/08:30am 27.3 SE 11 12 1008.4 - - - - - - - - -
28/08:29am 27.2 SE 11 - 1008.5 - - - - - - - - -
28/08:00am 27.0 SE 9 11 1008.3 - - - - - - - - -
28/07:30am 26.9 SE 9 12 1008.0 - - - - - - - - -
28/07:29am 26.9 SE 10 - 1008.2 - - - - - - - - -
28/07:00am 26.8 ESE 10 11 1007.4 - - - - - - - - -
28/06:30am 26.5 SE 10 13 1007.3 - - - - - - - - -
28/06:29am 26.6 SE 10 - 1007.5 - - - - - - - - -
28/06:00am 26.5 SE 10 11 1007.1 - - - - - - - - -
28/05:30am 26.6 ESE 8 9 1007.0 - - - - - - - - -
28/05:29am 26.4 ESE 8 - 1007.2 - - - - - - - - -
28/05:00am 26.5 SE 10 12 1006.8 - - - - - - - - -
28/04:30am 26.5 SE 9 11 1006.9 - - - - - - - - -
28/04:29am 26.5 SE 9 - 1007.1 - - - - - - - - -
28/04:00am 26.5 ESE 9 10 1006.9 - - - - - - - - -
28/03:30am 26.5 ESE 9 12 1006.6 - - - - - - - - -
28/03:29am 26.5 ESE 9 - 1006.8 - - - - - - - - -
28/03:00am 26.6 ESE 10 12 1006.7 - - - - - - - - -
28/02:30am 26.6 ESE 10 12 1006.7 - - - - - - - - -
28/02:29am 26.6 ESE 10 - 1006.9 - - - - - - - - -
28/02:00am 26.7 E 9 11 1006.9 - - - - - - - - -
28/01:30am 26.7 ESE 11 13 1007.4 - - - - - - - - -
28/01:29am 26.6 ESE 11 - 1007.7 - - - - - - - - -
28/01:00am 26.7 ESE 11 14 1007.9 - - - - - - - - -
28/12:30am 26.8 ESE 12 15 1008.0 - - - - - - - - -
28/12:29am 26.8 ESE 12 - 1008.2 - - - - - - - - -
28/12:00am 26.9 E 13 15 1007.8 - - - - - - - - -
 
Date/Time
EST
Temp

°C
Wind Pressure Rain
since 9am
mm
Weather Cloud Vis
km
Sea
Height
m
Swell
Dir
 
Speed
knots
Gust
knots
hPa Trend Height
m
Period
s
Dir
27/11:30pm 26.9 E 15 18 1007.7 - - - - - - - - -
27/11:29pm 27.0 E 15 - 1007.9 - - - - - - - - -
27/11:00pm 26.9 E 16 19 1007.7 - - - - - - - - -
27/10:30pm 26.8 E 16 18 1007.6 - - - - - - - - -
27/10:29pm 27.0 E 16 - 1007.8 - - - - - - - - -
27/10:00pm 27.0 ESE 16 17 1007.7 - - - - - - - - -
27/09:30pm 27.0 ESE 15 17 1007.5 - - - - - - - - -
27/09:29pm 27.0 ESE 15 - 1007.7 - - - - - - - - -
27/09:00pm 26.8 ESE 15 17 1007.6 - - - - - - - - -
27/08:30pm 26.8 ESE 15 17 1007.3 - - - - - - - - -
27/08:29pm 26.9 ESE 15 - 1007.5 - - - - - - - - -
27/08:00pm 26.9 ESE 15 17 1007.1 - - - - - - - - -
27/07:30pm 27.0 ESE 15 17 1006.7 - - - - - - - - -
27/07:29pm 27.0 ESE 15 - 1006.9 - - - - - - - - -
27/07:00pm 26.9 SE 14 16 1006.4 - - - - - - - - -
27/06:30pm 26.9 SE 14 16 1006.0 - - - - - - - - -
27/06:29pm 26.9 SE 14 - 1006.2 - - - - - - - - -
27/06:00pm 27.1 SE 13 15 1005.8 - - - - - - - - -
27/05:30pm 27.3 SE 12 14 1005.7 - - - - - - - - -
27/05:29pm 27.3 SE 12 - 1005.9 - - - - - - - - -
27/05:00pm 27.5 SE 13 15 1005.4 - - - - - - - - -
27/04:30pm 27.6 SSE 14 16 1005.2 - - - - - - - - -
27/04:29pm 27.6 SSE 14 - 1005.4 - - - - - - - - -
27/04:00pm 27.5 SSE 14 15 1005.2 - - - - - - - - -
27/03:30pm 27.5 SSE 13 16 1005.3 - - - - - - - - -
27/03:29pm 27.6 SSE 14 - 1005.5 - - - - - - - - -
27/03:00pm 27.4 S 15 18 1005.5 - - - - - - - - -
27/02:30pm 27.0 S 17 19 1005.8 - - - - - - - - -
27/02:29pm 26.9 S 17 - 1006.0 - - - - - - - - -
27/02:00pm 27.1 S 17 19 1006.0 - - - - - - - - -
27/01:30pm 27.1 S 16 18 1006.2 - - - - - - - - -
27/01:29pm 27.2 S 16 - 1006.4 - - - - - - - - -
27/01:00pm 27.3 S 15 17 1006.4 - - - - - - - - -
27/12:30pm 27.1 S 15 18 1006.9 - - - - - - - - -
27/12:29pm 27.1 S 15 - 1007.1 - - - - - - - - -
27/12:00pm 27.1 S 14 16 1007.3 - - - - - - - - -
27/11:30am 27.2 S 14 15 1007.6 - - - - - - - - -
27/11:29am 27.2 S 14 - 1007.8 - - - - - - - - -
27/11:00am 27.3 S 11 14 1007.8 - - - - - - - - -
27/10:30am 27.1 S 10 12 1007.8 - - - - - - - - -
27/10:29am 27.0 S 10 - 1008.0 - - - - - - - - -
27/10:00am 27.1 S 10 12 1007.9 - - - - - - - - -
27/09:30am 27.2 SSE 11 13 1007.7 - - - - - - - - -
27/09:29am 27.3 SSE 10 - 1007.9 - - - - - - - - -
27/09:00am 27.1 SE 9 10 1007.5 - - - - - - - - -
27/08:30am 27.0 SSE 8 9 1007.4 - - - - - - - - -
27/08:29am 27.0 SSE 8 - 1007.6 - - - - - - - - -
27/08:00am 27.0 SE 7 9 1007.4 - - - - - - - - -
27/07:30am 26.7 SE 8 10 1007.0 - - - - - - - - -
27/07:29am 26.8 SE 8 - 1007.2 - - - - - - - - -
27/07:00am 26.4 SSE 9 11 1007.0 - - - - - - - - -

Other Formats:

Comma delimited format used in spreadsheet applications
http://www.bom.gov.au/fwo/IDQ60701/IDQ60701.94379.axf

JavaScript Object Notation format (JSON) in row-major order
http://www.bom.gov.au/fwo/IDQ60701/IDQ60701.94379.json